createdAt,value
2023-07-06T00:00:09.379Z,4.03
2023-07-06T00:02:36.656Z,4.10
2023-07-06T00:05:03.892Z,4.20
2023-07-06T00:07:31.047Z,4.30
2023-07-06T00:09:58.199Z,4.07
2023-07-06T00:12:25.583Z,4.23
2023-07-06T00:14:52.779Z,4.43
2023-07-06T00:17:20.231Z,4.23
2023-07-06T00:19:48.427Z,4.17
2023-07-06T00:22:16.220Z,4.33
2023-07-06T00:24:47.461Z,4.27
2023-07-06T00:27:18.308Z,4.20
2023-07-06T00:29:58.270Z,4.10
2023-07-06T00:32:30.031Z,4.00
2023-07-06T00:34:57.698Z,4.03
2023-07-06T00:37:25.356Z,3.90
2023-07-06T00:39:52.710Z,3.83
2023-07-06T00:42:24.237Z,3.80
2023-07-06T00:44:54.536Z,4.23
2023-07-06T00:47:42.188Z,3.83
2023-07-06T00:50:12.166Z,4.10
2023-07-06T00:52:42.135Z,4.13
2023-07-06T00:55:10.135Z,3.90
2023-07-06T00:57:39.674Z,3.90
2023-07-06T01:00:08.286Z,3.90
2023-07-06T01:02:40.067Z,3.73
2023-07-06T01:05:08.744Z,3.80
2023-07-06T01:07:37.413Z,3.47
2023-07-06T01:10:06.490Z,3.63
2023-07-06T01:12:34.323Z,3.57
2023-07-06T01:15:01.834Z,3.37
2023-07-06T01:17:34.532Z,3.57
2023-07-06T01:20:05.398Z,3.40
2023-07-06T01:22:51.133Z,3.10
2023-07-06T01:25:21.309Z,2.70
2023-07-06T01:27:50.169Z,2.80
2023-07-06T01:30:37.475Z,2.67
2023-07-06T01:33:24.950Z,2.73
2023-07-06T01:35:55.802Z,2.73
2023-07-06T01:38:24.268Z,2.57
2023-07-06T01:40:52.481Z,2.60
2023-07-06T01:43:22.208Z,2.67
2023-07-06T01:45:50.061Z,2.60
2023-07-06T01:48:17.450Z,2.40
2023-07-06T01:50:49.989Z,2.57
2023-07-06T01:53:32.892Z,2.40
2023-07-06T01:56:02.930Z,2.40
2023-07-06T01:58:33.992Z,2.13
2023-07-06T02:01:11.835Z,2.30
2023-07-06T02:03:39.670Z,2.13
2023-07-06T02:06:08.886Z,2.30
2023-07-06T02:08:42.501Z,2.50
2023-07-06T02:11:13.104Z,2.27
2023-07-06T02:13:40.352Z,2.40
2023-07-06T02:16:08.764Z,2.20
2023-07-06T02:18:36.442Z,2.40
2023-07-06T02:21:04.008Z,2.20
2023-07-06T02:23:31.528Z,2.20
2023-07-06T02:25:59.093Z,2.30
2023-07-06T02:28:27.035Z,2.33
2023-07-06T02:30:54.274Z,2.10
2023-07-06T02:33:22.210Z,2.03
2023-07-06T02:35:49.395Z,2.20
2023-07-06T02:38:17.610Z,2.30
2023-07-06T02:40:44.847Z,2.03
2023-07-06T02:43:12.398Z,2.00
2023-07-06T02:45:39.812Z,2.20
2023-07-06T02:48:07.371Z,2.20
2023-07-06T02:50:34.872Z,2.37
2023-07-06T02:53:02.442Z,1.90
2023-07-06T02:55:29.619Z,2.10
2023-07-06T02:57:57.108Z,2.00
2023-07-06T03:00:25.214Z,2.40
2023-07-06T03:02:53.002Z,2.00
2023-07-06T03:05:24.214Z,2.40
2023-07-06T03:07:55.929Z,2.23
2023-07-06T03:10:24.629Z,2.00
2023-07-06T03:12:52.289Z,2.13
2023-07-06T03:15:19.605Z,2.10
2023-07-06T03:17:51.879Z,1.80
2023-07-06T03:20:20.851Z,2.10
2023-07-06T03:22:49.814Z,2.00
2023-07-06T03:25:17.798Z,1.90
2023-07-06T03:27:47.408Z,1.70
2023-07-06T03:30:15.378Z,1.90
2023-07-06T03:32:42.608Z,1.70
2023-07-06T03:35:11.016Z,1.83
2023-07-06T03:37:38.924Z,2.20
2023-07-06T03:40:06.994Z,2.30
2023-07-06T03:42:34.353Z,2.33
2023-07-06T03:45:01.542Z,1.93
2023-07-06T03:47:28.805Z,1.90
2023-07-06T03:49:56.022Z,1.90
2023-07-06T03:52:23.462Z,2.00
2023-07-06T03:54:50.803Z,1.97
2023-07-06T03:57:18.327Z,2.10
2023-07-06T03:59:45.558Z,2.10
2023-07-06T04:02:13.436Z,2.03
2023-07-06T04:04:40.671Z,2.13
2023-07-06T04:07:08.890Z,2.27
2023-07-06T04:09:37.593Z,2.10
2023-07-06T04:12:04.964Z,2.20
2023-07-06T04:14:32.168Z,2.00
2023-07-06T04:16:59.369Z,2.73
2023-07-06T04:19:26.561Z,1.90
2023-07-06T04:21:58.154Z,2.00
2023-07-06T04:24:31.707Z,1.93
2023-07-06T04:27:01.035Z,2.00
2023-07-06T04:29:30.692Z,2.00
2023-07-06T04:31:58.172Z,2.40
2023-07-06T04:34:25.683Z,2.63
2023-07-06T04:36:52.904Z,3.10
2023-07-06T04:39:20.109Z,2.20
2023-07-06T04:41:47.287Z,2.30
2023-07-06T04:44:14.476Z,2.23
2023-07-06T04:46:41.744Z,2.30
2023-07-06T04:49:09.059Z,1.93
2023-07-06T04:51:39.367Z,1.70
2023-07-06T04:54:06.574Z,2.80
2023-07-06T04:56:33.883Z,2.40
2023-07-06T04:59:01.078Z,2.03
2023-07-06T05:01:28.471Z,1.57
2023-07-06T05:03:55.892Z,1.90
2023-07-06T05:06:23.160Z,3.00
2023-07-06T05:08:51.513Z,3.40
2023-07-06T05:11:18.773Z,2.40
2023-07-06T05:13:46.410Z,2.17
2023-07-06T05:16:13.742Z,1.83
2023-07-06T05:18:41.025Z,1.90
2023-07-06T05:21:08.220Z,2.00
2023-07-06T05:23:35.602Z,1.97
2023-07-06T05:26:04.884Z,2.10
2023-07-06T05:28:32.582Z,2.17
2023-07-06T05:31:01.866Z,2.33
2023-07-06T05:33:29.064Z,2.07
2023-07-06T05:35:56.444Z,2.20
2023-07-06T05:38:23.896Z,2.50
2023-07-06T05:40:51.069Z,2.10
2023-07-06T05:43:20.473Z,2.30
2023-07-06T05:45:48.690Z,2.20
2023-07-06T05:48:16.194Z,2.10
2023-07-06T05:50:43.731Z,2.57
2023-07-06T05:53:10.968Z,3.03
2023-07-06T05:55:38.183Z,2.60
2023-07-06T05:58:05.432Z,2.10
2023-07-06T06:00:38.094Z,2.60
2023-07-06T06:03:05.680Z,2.57
2023-07-06T06:05:32.962Z,3.37
2023-07-06T06:08:02.096Z,2.87
2023-07-06T06:10:29.925Z,2.33
2023-07-06T06:12:59.007Z,2.07
2023-07-06T06:15:28.194Z,1.90
2023-07-06T06:17:55.644Z,1.53
2023-07-06T06:20:23.652Z,1.43
2023-07-06T06:22:52.545Z,1.47
2023-07-06T06:25:19.970Z,1.40
2023-07-06T06:27:47.724Z,1.60
2023-07-06T06:30:16.168Z,1.50
2023-07-06T06:32:43.670Z,1.30
2023-07-06T06:35:29.261Z,1.70
2023-07-06T06:37:58.940Z,1.37
2023-07-06T06:40:26.570Z,1.70
2023-07-06T06:42:53.965Z,1.90
2023-07-06T06:45:22.468Z,2.17
2023-07-06T06:47:50.130Z,2.30
2023-07-06T06:50:20.969Z,2.13
2023-07-06T06:52:48.968Z,1.60
2023-07-06T06:55:16.304Z,2.13
2023-07-06T06:57:44.481Z,2.10
2023-07-06T07:00:15.239Z,2.33
2023-07-06T07:02:43.046Z,2.60
2023-07-06T07:05:11.040Z,2.43
2023-07-06T07:07:39.165Z,2.30
2023-07-06T07:10:10.532Z,2.50
2023-07-06T07:12:38.960Z,2.90
2023-07-06T07:15:06.374Z,2.80
2023-07-06T07:17:33.568Z,2.30
2023-07-06T07:20:00.826Z,3.10
2023-07-06T07:22:28.695Z,2.57
2023-07-06T07:24:55.902Z,2.70
2023-07-06T07:27:24.017Z,2.87
2023-07-06T07:29:51.185Z,2.70
2023-07-06T07:32:22.067Z,2.50
2023-07-06T07:34:52.611Z,3.00
2023-07-06T07:37:20.190Z,2.83
2023-07-06T07:39:49.892Z,2.70
2023-07-06T07:42:17.665Z,2.60
2023-07-06T07:44:48.660Z,2.70
2023-07-06T07:47:19.698Z,2.70
2023-07-06T07:49:47.902Z,2.63
2023-07-06T07:52:15.652Z,2.47
2023-07-06T07:54:44.321Z,2.80
2023-07-06T07:57:12.612Z,2.17
2023-07-06T07:59:39.908Z,2.70
2023-07-06T08:02:08.733Z,2.90
2023-07-06T08:04:38.038Z,3.00
2023-07-06T08:07:07.504Z,2.40
2023-07-06T08:09:34.691Z,2.53
2023-07-06T08:12:04.267Z,2.17
2023-07-06T08:14:38.645Z,2.03
2023-07-06T08:17:06.986Z,2.30
2023-07-06T08:19:54.602Z,1.80
2023-07-06T08:22:23.784Z,1.40
2023-07-06T08:24:51.076Z,1.90
2023-07-06T08:27:19.656Z,1.70
2023-07-06T08:29:49.080Z,1.70
2023-07-06T08:32:20.251Z,1.97
2023-07-06T08:34:48.440Z,1.93
2023-07-06T08:37:20.070Z,1.80
2023-07-06T08:39:47.862Z,1.90
2023-07-06T08:42:17.292Z,1.73
2023-07-06T08:44:51.802Z,1.63
2023-07-06T08:47:19.407Z,1.60
2023-07-06T08:49:46.721Z,1.53
2023-07-06T08:52:14.277Z,1.77
2023-07-06T08:54:42.489Z,1.70
2023-07-06T08:57:17.308Z,1.70
2023-07-06T08:59:45.859Z,2.00
2023-07-06T09:02:17.922Z,2.07
2023-07-06T09:04:47.338Z,1.97
2023-07-06T09:07:16.788Z,1.90
2023-07-06T09:09:45.196Z,2.20
2023-07-06T09:12:14.378Z,2.10
2023-07-06T09:14:45.137Z,1.70
2023-07-06T09:17:17.994Z,2.07
2023-07-06T09:19:45.925Z,2.00
2023-07-06T09:22:13.117Z,2.03
2023-07-06T09:24:40.873Z,2.10
2023-07-06T09:27:12.187Z,2.60
2023-07-06T09:29:39.440Z,2.37
2023-07-06T09:32:11.857Z,2.00
2023-07-06T09:34:40.190Z,1.97
2023-07-06T09:37:07.395Z,2.00
2023-07-06T09:39:34.618Z,2.10
2023-07-06T09:42:02.493Z,2.00
2023-07-06T09:44:31.130Z,2.40
2023-07-06T09:47:02.469Z,2.57
2023-07-06T09:51:59.979Z,2.40
2023-07-06T09:54:47.637Z,2.40
2023-07-06T09:57:18.908Z,2.30
2023-07-06T09:59:47.833Z,2.33
2023-07-06T10:02:15.092Z,2.53
2023-07-06T10:04:54.247Z,2.83
2023-07-06T10:07:24.712Z,2.80
2023-07-06T10:09:56.486Z,2.70
2023-07-06T10:12:46.900Z,2.60
2023-07-06T10:15:18.347Z,2.47
2023-07-06T10:17:48.748Z,2.80
2023-07-06T10:20:27.232Z,2.60
2023-07-06T10:23:13.526Z,2.50
2023-07-06T10:25:47.456Z,2.30
2023-07-06T10:28:30.002Z,2.40
2023-07-06T10:30:58.361Z,2.70
2023-07-06T10:33:25.509Z,2.27
2023-07-06T10:35:53.632Z,2.47
2023-07-06T10:38:21.620Z,2.37
2023-07-06T10:41:07.681Z,2.50
2023-07-06T10:43:34.857Z,2.80
2023-07-06T10:46:22.027Z,2.13
2023-07-06T10:48:55.617Z,2.53
2023-07-06T10:51:24.700Z,2.10
2023-07-06T10:54:12.442Z,2.00
2023-07-06T10:56:42.730Z,2.23
2023-07-06T10:59:20.405Z,2.33
2023-07-06T11:01:49.342Z,1.90
2023-07-06T11:04:45.933Z,2.30
2023-07-06T11:07:15.356Z,2.40
2023-07-06T11:10:05.936Z,2.50
2023-07-06T11:12:33.116Z,2.17
2023-07-06T11:15:11.936Z,2.60
2023-07-06T11:17:41.396Z,2.30
2023-07-06T11:20:29.520Z,2.10
2023-07-06T11:23:04.273Z,2.30
2023-07-06T11:25:32.385Z,2.53
2023-07-06T11:28:07.161Z,2.20
2023-07-06T11:30:50.573Z,2.10
2023-07-06T11:33:31.884Z,2.20
2023-07-06T11:36:13.163Z,2.37
2023-07-06T11:38:58.562Z,2.13
2023-07-06T11:41:45.152Z,2.50
2023-07-06T11:44:12.370Z,2.30
2023-07-06T11:46:56.470Z,2.53
2023-07-06T11:49:35.943Z,2.20
2023-07-06T11:52:06.695Z,2.40
2023-07-06T11:54:51.038Z,2.37
2023-07-06T11:57:46.892Z,2.43
2023-07-06T12:00:27.651Z,1.90
2023-07-06T12:02:54.857Z,2.00
2023-07-06T12:05:25.192Z,2.00
2023-07-06T12:08:02.960Z,1.97
2023-07-06T12:10:34.903Z,2.23
2023-07-06T12:13:06.171Z,2.70
2023-07-06T12:15:33.560Z,2.80
2023-07-06T12:18:03.767Z,3.00
2023-07-06T12:20:33.133Z,3.47
2023-07-06T12:23:00.637Z,3.43
2023-07-06T12:25:31.712Z,3.27
2023-07-06T12:28:02.796Z,3.90
2023-07-06T12:30:34.261Z,3.47
2023-07-06T12:33:21.831Z,4.23
2023-07-06T12:35:49.286Z,3.80
2023-07-06T12:38:17.522Z,3.83
2023-07-06T12:40:44.845Z,4.10
2023-07-06T12:43:18.447Z,3.77
2023-07-06T12:45:46.059Z,3.60
2023-07-06T12:48:19.451Z,3.23
2023-07-06T12:50:48.366Z,3.40
2023-07-06T12:53:23.814Z,3.80
2023-07-06T12:55:53.513Z,3.83
2023-07-06T12:58:29.096Z,4.00
2023-07-06T13:01:11.349Z,4.17
2023-07-06T13:03:59.400Z,4.17
2023-07-06T13:06:27.415Z,4.03
2023-07-06T13:08:55.638Z,3.90
2023-07-06T13:11:23.087Z,3.67
2023-07-06T13:13:51.742Z,3.60
2023-07-06T13:16:19.956Z,3.73
2023-07-06T13:18:47.829Z,3.90
2023-07-06T13:21:18.393Z,3.90
2023-07-06T13:23:48.350Z,3.40
2023-07-06T13:26:15.948Z,3.80
2023-07-06T13:28:45.049Z,3.27
2023-07-06T13:31:16.398Z,3.50
2023-07-06T13:33:44.119Z,4.00
2023-07-06T13:36:15.523Z,3.17
2023-07-06T13:38:42.780Z,3.60
2023-07-06T13:41:12.380Z,3.47
2023-07-06T13:43:42.627Z,3.50
2023-07-06T13:46:11.348Z,3.30
2023-07-06T13:48:39.237Z,3.07
2023-07-06T13:51:06.937Z,3.27
2023-07-06T13:53:35.002Z,3.20
2023-07-06T13:56:02.773Z,3.10
2023-07-06T13:58:31.652Z,3.57
2023-07-06T14:00:59.447Z,2.93
2023-07-06T14:03:29.198Z,2.90
2023-07-06T14:05:57.078Z,2.60
2023-07-06T14:08:26.502Z,3.10
2023-07-06T14:10:54.592Z,2.90
2023-07-06T14:13:24.448Z,2.67
2023-07-06T14:15:52.060Z,3.00
2023-07-06T14:18:19.441Z,2.90
2023-07-06T14:20:47.616Z,3.33
2023-07-06T14:23:16.520Z,2.93
2023-07-06T14:25:43.905Z,2.60
2023-07-06T14:28:11.639Z,2.77
2023-07-06T14:30:38.991Z,3.33
2023-07-06T14:33:10.437Z,2.93
2023-07-06T14:35:37.828Z,2.77
2023-07-06T14:38:07.378Z,2.60
2023-07-06T14:40:37.802Z,2.70
2023-07-06T14:43:05.348Z,2.77
2023-07-06T14:45:33.625Z,2.40
2023-07-06T14:48:01.022Z,2.73
2023-07-06T14:50:28.495Z,2.83
2023-07-06T14:52:56.256Z,2.73
2023-07-06T14:55:24.112Z,2.90
2023-07-06T14:57:51.415Z,2.40
2023-07-06T15:00:18.881Z,2.70
2023-07-06T15:02:47.501Z,3.00
2023-07-06T15:05:14.962Z,2.57
2023-07-06T15:07:42.305Z,2.50
2023-07-06T15:10:10.842Z,2.73
2023-07-06T15:12:41.558Z,2.50
2023-07-06T15:15:10.488Z,2.50
2023-07-06T15:17:37.716Z,2.67
2023-07-06T15:20:06.007Z,3.03
2023-07-06T15:22:33.167Z,2.80
2023-07-06T15:25:00.402Z,2.83
2023-07-06T15:27:27.678Z,2.67
2023-07-06T15:29:54.932Z,2.47
2023-07-06T15:32:22.193Z,2.23
2023-07-06T15:35:00.401Z,2.40
2023-07-06T15:37:28.908Z,2.20
2023-07-06T15:39:58.895Z,2.10
2023-07-06T15:42:27.000Z,2.10
2023-07-06T15:44:54.461Z,2.07
2023-07-06T15:47:22.607Z,2.30
2023-07-06T15:49:50.226Z,1.77
2023-07-06T15:52:17.645Z,2.27
2023-07-06T15:54:44.900Z,2.20
2023-07-06T15:57:12.538Z,2.07
2023-07-06T15:59:39.949Z,2.23
2023-07-06T16:02:07.581Z,2.10
2023-07-06T16:04:34.968Z,2.13
2023-07-06T16:07:02.269Z,2.03
2023-07-06T16:09:29.440Z,2.13
2023-07-06T16:11:56.602Z,1.80
2023-07-06T16:14:24.899Z,1.93
2023-07-06T16:16:55.171Z,2.00
2023-07-06T16:19:22.344Z,2.00
2023-07-06T16:21:49.532Z,2.20
2023-07-06T16:24:18.513Z,2.30
2023-07-06T16:26:46.625Z,2.43
2023-07-06T16:29:13.890Z,2.27
2023-07-06T16:31:41.203Z,2.43
2023-07-06T16:34:08.390Z,2.00
2023-07-06T16:36:35.810Z,2.37
2023-07-06T16:39:03.041Z,2.17
2023-07-06T16:41:30.500Z,2.20
2023-07-06T16:43:57.958Z,2.47
2023-07-06T16:46:25.175Z,2.30
2023-07-06T16:48:52.398Z,2.10
2023-07-06T16:51:19.680Z,2.33
2023-07-06T16:53:46.866Z,2.00
2023-07-06T16:56:14.073Z,2.13
2023-07-06T16:58:41.261Z,2.10
2023-07-06T17:01:09.983Z,2.30
2023-07-06T17:03:37.296Z,2.10
2023-07-06T17:06:04.669Z,2.23
2023-07-06T17:08:32.142Z,2.23
2023-07-06T17:11:03.145Z,1.83
2023-07-06T17:13:30.473Z,2.10
2023-07-06T17:15:58.610Z,2.00
2023-07-06T17:18:26.121Z,1.90
2023-07-06T17:20:57.983Z,2.10
2023-07-06T17:23:25.224Z,2.03
2023-07-06T17:25:52.469Z,2.30
2023-07-06T17:28:20.620Z,2.17
2023-07-06T17:30:49.248Z,2.07
2023-07-06T17:33:16.681Z,2.23
2023-07-06T17:35:44.779Z,2.00
2023-07-06T17:38:12.893Z,2.00
2023-07-06T17:40:40.360Z,1.93
2023-07-06T17:43:07.571Z,1.90
2023-07-06T17:45:34.768Z,1.73
2023-07-06T17:48:02.088Z,1.97
2023-07-06T17:50:29.382Z,1.87
2023-07-06T17:52:56.590Z,1.90
2023-07-06T17:55:24.510Z,1.90
2023-07-06T17:57:51.739Z,2.07
2023-07-06T18:00:19.036Z,2.30
2023-07-06T18:02:46.301Z,1.90
2023-07-06T18:05:13.527Z,1.80
2023-07-06T18:07:41.489Z,2.23
2023-07-06T18:10:08.892Z,2.20
2023-07-06T18:12:36.203Z,2.07
2023-07-06T18:15:03.406Z,1.73
2023-07-06T18:17:30.668Z,1.93
2023-07-06T18:19:57.889Z,1.93
2023-07-06T18:22:25.179Z,1.83
2023-07-06T18:24:52.452Z,1.97
2023-07-06T18:27:19.721Z,2.03
2023-07-06T18:29:47.154Z,1.97
2023-07-06T18:32:14.382Z,1.97
2023-07-06T18:34:41.590Z,2.10
2023-07-06T18:37:08.782Z,1.80
2023-07-06T18:39:36.098Z,1.90
2023-07-06T18:42:03.330Z,1.90
2023-07-06T18:44:30.548Z,1.77
2023-07-06T18:46:57.814Z,1.80
2023-07-06T18:49:25.071Z,1.70
2023-07-06T18:51:52.291Z,2.00
2023-07-06T18:54:19.556Z,1.90
2023-07-06T18:56:46.955Z,1.90
2023-07-06T18:59:14.141Z,1.87
2023-07-06T19:01:41.407Z,1.83
2023-07-06T19:04:08.694Z,1.90
2023-07-06T19:06:37.434Z,1.90
2023-07-06T19:09:04.599Z,1.83
2023-07-06T19:11:31.776Z,2.00
2023-07-06T19:13:59.468Z,1.87
2023-07-06T19:16:26.758Z,1.90
2023-07-06T19:18:53.957Z,1.90
2023-07-06T19:21:21.115Z,2.00
2023-07-06T19:23:48.421Z,2.00
2023-07-06T19:26:16.017Z,2.17
2023-07-06T19:28:43.474Z,1.80
2023-07-06T19:31:10.677Z,1.80
2023-07-06T19:33:37.930Z,2.00
2023-07-06T19:36:06.070Z,1.90
2023-07-06T19:38:33.295Z,1.90
2023-07-06T19:41:00.471Z,1.83
2023-07-06T19:43:27.657Z,1.90
2023-07-06T19:45:59.513Z,2.00
2023-07-06T19:48:29.021Z,2.30
2023-07-06T19:50:59.381Z,2.60
2023-07-06T19:53:27.461Z,2.00
2023-07-06T19:55:54.768Z,2.10
2023-07-06T19:58:23.476Z,1.90
2023-07-06T20:00:51.365Z,2.10
2023-07-06T20:03:18.596Z,2.10
2023-07-06T20:05:45.823Z,1.90
2023-07-06T20:08:14.761Z,2.03
2023-07-06T20:10:42.141Z,2.13
2023-07-06T20:13:09.320Z,2.23
2023-07-06T20:15:36.583Z,2.17
2023-07-06T20:18:04.016Z,2.00
2023-07-06T20:20:31.434Z,2.20
2023-07-06T20:22:58.619Z,2.37
2023-07-06T20:25:25.785Z,2.20
2023-07-06T20:27:52.973Z,2.30
2023-07-06T20:30:20.216Z,2.37
2023-07-06T20:32:47.679Z,2.70
2023-07-06T20:35:14.889Z,2.37
2023-07-06T20:37:42.073Z,2.47
2023-07-06T20:40:11.765Z,2.43
2023-07-06T20:42:39.280Z,2.73
2023-07-06T20:45:06.761Z,2.73
2023-07-06T20:47:34.005Z,2.70
2023-07-06T20:50:01.218Z,2.87
2023-07-06T20:52:28.501Z,3.00
2023-07-06T20:54:56.239Z,3.00
2023-07-06T20:57:24.006Z,3.20
2023-07-06T20:59:52.625Z,3.33
2023-07-06T21:02:20.254Z,3.37
2023-07-06T21:04:47.480Z,3.27
2023-07-06T21:07:14.923Z,3.43
2023-07-06T21:09:42.178Z,3.60
2023-07-06T21:12:09.539Z,3.40
2023-07-06T21:14:36.754Z,3.10
2023-07-06T21:17:04.015Z,4.13
2023-07-06T21:19:31.227Z,3.60
2023-07-06T21:21:58.439Z,3.93
2023-07-06T21:24:25.793Z,3.93
2023-07-06T21:26:52.973Z,4.10
2023-07-06T21:29:20.760Z,3.53
2023-07-06T21:31:48.051Z,4.40
2023-07-06T21:34:16.333Z,3.73
2023-07-06T21:36:44.382Z,3.50
2023-07-06T21:39:12.205Z,3.90
2023-07-06T21:41:39.455Z,3.63
2023-07-06T21:44:07.035Z,3.93
2023-07-06T21:46:34.446Z,3.50
2023-07-06T21:49:01.713Z,3.63
2023-07-06T21:51:29.546Z,4.10
2023-07-06T21:53:56.831Z,3.60
2023-07-06T21:56:24.025Z,3.60
2023-07-06T21:58:51.281Z,3.60
2023-07-06T22:01:18.637Z,3.40
2023-07-06T22:03:45.878Z,3.60
2023-07-06T22:06:15.140Z,3.40
2023-07-06T22:08:42.426Z,3.63
2023-07-06T22:11:11.483Z,3.50
2023-07-06T22:13:39.113Z,3.50
2023-07-06T22:16:08.305Z,3.57
2023-07-06T22:18:36.337Z,3.43
2023-07-06T22:21:03.710Z,3.30
2023-07-06T22:23:31.069Z,3.53
2023-07-06T22:25:58.425Z,3.57
2023-07-06T22:28:26.583Z,3.90
2023-07-06T22:31:01.226Z,3.30
2023-07-06T22:33:29.757Z,3.20
2023-07-06T22:35:57.203Z,3.00
2023-07-06T22:38:24.786Z,3.13
2023-07-06T22:40:51.997Z,3.40
2023-07-06T22:43:19.316Z,3.20
2023-07-06T22:45:46.562Z,3.23
2023-07-06T22:48:15.080Z,3.60
2023-07-06T22:50:42.395Z,3.10
2023-07-06T22:53:10.736Z,3.20
2023-07-06T22:55:38.057Z,3.30
2023-07-06T22:58:06.068Z,3.30
2023-07-06T23:00:35.192Z,3.10
2023-07-06T23:03:02.495Z,3.13
2023-07-06T23:05:29.881Z,3.63
2023-07-06T23:07:57.613Z,3.00
2023-07-06T23:10:26.047Z,3.30
2023-07-06T23:12:57.412Z,3.20
2023-07-06T23:15:29.665Z,3.40
2023-07-06T23:17:57.243Z,3.40
2023-07-06T23:20:25.078Z,3.70
2023-07-06T23:22:52.277Z,3.40
2023-07-06T23:25:20.178Z,3.50
2023-07-06T23:27:48.567Z,3.70
2023-07-06T23:30:16.873Z,3.60
2023-07-06T23:32:49.888Z,3.70
2023-07-06T23:35:20.967Z,3.00
2023-07-06T23:37:49.850Z,3.60
2023-07-06T23:40:20.134Z,3.40
2023-07-06T23:42:47.353Z,3.40
2023-07-06T23:45:14.525Z,2.97
2023-07-06T23:47:41.778Z,3.50
2023-07-06T23:50:09.382Z,3.23
2023-07-06T23:52:36.668Z,3.20
2023-07-06T23:55:03.937Z,3.33
2023-07-06T23:57:31.129Z,3.50
2023-07-06T23:59:58.342Z,3.03
